sensor_id;sensor_type;location;lat;lon;timestamp;temperature;humidity
4910;DHT22;2470;49.868;8.660;2022-11-15T00:00:49;13.40;99.90
4910;DHT22;2470;49.868;8.660;2022-11-15T00:03:15;13.40;99.90
4910;DHT22;2470;49.868;8.660;2022-11-15T00:05:41;13.40;99.90
4910;DHT22;2470;49.868;8.660;2022-11-15T00:08:07;13.40;99.90
4910;DHT22;2470;49.868;8.660;2022-11-15T00:10:33;13.40;99.90
4910;DHT22;2470;49.868;8.660;2022-11-15T00:12:58;13.30;99.90
4910;DHT22;2470;49.868;8.660;2022-11-15T00:15:24;13.30;99.90
4910;DHT22;2470;49.868;8.660;2022-11-15T00:17:50;13.30;99.90
4910;DHT22;2470;49.868;8.660;2022-11-15T00:20:17;13.20;99.90
4910;DHT22;2470;49.868;8.660;2022-11-15T00:22:42;13.20;99.90
4910;DHT22;2470;49.868;8.660;2022-11-15T00:25:08;13.30;99.90
4910;DHT22;2470;49.868;8.660;2022-11-15T00:27:33;13.30;99.90
4910;DHT22;2470;49.868;8.660;2022-11-15T00:29:59;13.40;99.90
4910;DHT22;2470;49.868;8.660;2022-11-15T00:32:24;13.40;99.90
4910;DHT22;2470;49.868;8.660;2022-11-15T00:34:50;13.40;99.90
4910;DHT22;2470;49.868;8.660;2022-11-15T00:37:15;13.40;99.90
4910;DHT22;2470;49.868;8.660;2022-11-15T00:39:41;13.50;99.90
4910;DHT22;2470;49.868;8.660;2022-11-15T00:42:06;13.50;99.90
4910;DHT22;2470;49.868;8.660;2022-11-15T00:44:32;13.50;99.90
4910;DHT22;2470;49.868;8.660;2022-11-15T00:46:57;13.50;99.90
4910;DHT22;2470;49.868;8.660;2022-11-15T00:49:23;13.50;99.90
4910;DHT22;2470;49.868;8.660;2022-11-15T00:51:48;13.50;99.90
4910;DHT22;2470;49.868;8.660;2022-11-15T00:54:14;13.50;99.90
4910;DHT22;2470;49.868;8.660;2022-11-15T00:56:40;13.50;99.90
4910;DHT22;2470;49.868;8.660;2022-11-15T00:59:05;13.50;99.90
4910;DHT22;2470;49.868;8.660;2022-11-15T01:01:31;13.60;99.90
4910;DHT22;2470;49.868;8.660;2022-11-15T01:03:57;13.60;99.90
4910;DHT22;2470;49.868;8.660;2022-11-15T01:06:22;13.60;99.90
4910;DHT22;2470;49.868;8.660;2022-11-15T01:08:48;13.60;99.90
4910;DHT22;2470;49.868;8.660;2022-11-15T01:11:13;13.60;99.90
4910;DHT22;2470;49.868;8.660;2022-11-15T01:13:39;13.60;99.90
4910;DHT22;2470;49.868;8.660;2022-11-15T01:16:12;13.50;99.90
4910;DHT22;2470;49.868;8.660;2022-11-15T01:18:38;13.60;99.90
4910;DHT22;2470;49.868;8.660;2022-11-15T01:21:08;13.50;99.90
4910;DHT22;2470;49.868;8.660;2022-11-15T01:23:37;13.50;99.90
4910;DHT22;2470;49.868;8.660;2022-11-15T01:26:05;13.50;99.90
4910;DHT22;2470;49.868;8.660;2022-11-15T01:28:36;13.50;99.90
4910;DHT22;2470;49.868;8.660;2022-11-15T01:31:05;13.40;99.90
4910;DHT22;2470;49.868;8.660;2022-11-15T01:33:34;13.50;99.90
4910;DHT22;2470;49.868;8.660;2022-11-15T01:36:04;13.40;99.90
4910;DHT22;2470;49.868;8.660;2022-11-15T01:38:30;13.40;99.90
4910;DHT22;2470;49.868;8.660;2022-11-15T01:40:55;13.30;99.90
4910;DHT22;2470;49.868;8.660;2022-11-15T01:43:30;13.30;99.90
4910;DHT22;2470;49.868;8.660;2022-11-15T01:46:00;13.30;99.90
4910;DHT22;2470;49.868;8.660;2022-11-15T01:48:31;13.30;99.90
4910;DHT22;2470;49.868;8.660;2022-11-15T01:50:59;13.40;99.90
4910;DHT22;2470;49.868;8.660;2022-11-15T01:53:26;13.40;99.90
4910;DHT22;2470;49.868;8.660;2022-11-15T01:55:53;13.40;99.90
4910;DHT22;2470;49.868;8.660;2022-11-15T01:58:19;13.50;99.90
4910;DHT22;2470;49.868;8.660;2022-11-15T02:00:44;13.40;99.90
4910;DHT22;2470;49.868;8.660;2022-11-15T02:03:10;13.50;99.90
4910;DHT22;2470;49.868;8.660;2022-11-15T02:05:36;13.50;99.90
4910;DHT22;2470;49.868;8.660;2022-11-15T02:08:02;13.50;99.90
4910;DHT22;2470;49.868;8.660;2022-11-15T02:10:28;13.50;99.90
4910;DHT22;2470;49.868;8.660;2022-11-15T02:12:55;13.60;99.90
4910;DHT22;2470;49.868;8.660;2022-11-15T02:15:21;13.60;99.90
4910;DHT22;2470;49.868;8.660;2022-11-15T02:17:58;13.60;99.90
4910;DHT22;2470;49.868;8.660;2022-11-15T02:20:47;13.60;99.90
4910;DHT22;2470;49.868;8.660;2022-11-15T02:26:42;13.60;99.90
4910;DHT22;2470;49.868;8.660;2022-11-15T02:32:18;13.60;99.90
4910;DHT22;2470;49.868;8.660;2022-11-15T02:37:45;13.50;99.90
4910;DHT22;2470;49.868;8.660;2022-11-15T02:43:03;13.40;99.90
4910;DHT22;2470;49.868;8.660;2022-11-15T02:45:53;13.40;99.90
4910;DHT22;2470;49.868;8.660;2022-11-15T02:48:22;13.40;99.90
4910;DHT22;2470;49.868;8.660;2022-11-15T02:50:49;13.30;99.90
4910;DHT22;2470;49.868;8.660;2022-11-15T02:53:15;13.30;99.90
4910;DHT22;2470;49.868;8.660;2022-11-15T02:55:44;13.20;99.90
4910;DHT22;2470;49.868;8.660;2022-11-15T03:01:03;13.20;99.90
4910;DHT22;2470;49.868;8.660;2022-11-15T03:06:20;13.20;99.90
4910;DHT22;2470;49.868;8.660;2022-11-15T03:11:22;13.10;99.90
4910;DHT22;2470;49.868;8.660;2022-11-15T03:14:07;13.10;99.90
4910;DHT22;2470;49.868;8.660;2022-11-15T03:19:38;13.00;99.90
4910;DHT22;2470;49.868;8.660;2022-11-15T03:22:11;13.00;99.90
4910;DHT22;2470;49.868;8.660;2022-11-15T03:24:38;13.00;99.90
4910;DHT22;2470;49.868;8.660;2022-11-15T03:27:06;13.00;99.90
4910;DHT22;2470;49.868;8.660;2022-11-15T03:29:35;13.00;99.90
4910;DHT22;2470;49.868;8.660;2022-11-15T03:32:34;13.10;99.90
4910;DHT22;2470;49.868;8.660;2022-11-15T03:35:05;13.10;99.90
4910;DHT22;2470;49.868;8.660;2022-11-15T03:40:08;13.10;99.90
4910;DHT22;2470;49.868;8.660;2022-11-15T03:42:46;13.10;99.90
4910;DHT22;2470;49.868;8.660;2022-11-15T03:45:22;13.10;99.90
4910;DHT22;2470;49.868;8.660;2022-11-15T03:48:16;13.10;99.90
4910;DHT22;2470;49.868;8.660;2022-11-15T03:50:45;13.10;99.90
4910;DHT22;2470;49.868;8.660;2022-11-15T03:53:12;13.10;99.90
4910;DHT22;2470;49.868;8.660;2022-11-15T03:55:38;13.00;99.90
4910;DHT22;2470;49.868;8.660;2022-11-15T03:58:03;13.00;99.90
4910;DHT22;2470;49.868;8.660;2022-11-15T04:00:30;13.00;99.90
4910;DHT22;2470;49.868;8.660;2022-11-15T04:03:08;12.90;99.90
4910;DHT22;2470;49.868;8.660;2022-11-15T04:05:33;12.90;99.90
4910;DHT22;2470;49.868;8.660;2022-11-15T04:07:59;12.90;99.90
4910;DHT22;2470;49.868;8.660;2022-11-15T04:10:24;12.90;99.90
4910;DHT22;2470;49.868;8.660;2022-11-15T04:12:50;12.80;99.90
4910;DHT22;2470;49.868;8.660;2022-11-15T04:15:21;12.90;99.90
4910;DHT22;2470;49.868;8.660;2022-11-15T04:17:49;12.90;99.90
4910;DHT22;2470;49.868;8.660;2022-11-15T04:20:27;12.90;99.90
4910;DHT22;2470;49.868;8.660;2022-11-15T04:23:20;12.90;99.90
4910;DHT22;2470;49.868;8.660;2022-11-15T04:26:06;12.90;99.90
4910;DHT22;2470;49.868;8.660;2022-11-15T04:28:33;12.90;99.90
4910;DHT22;2470;49.868;8.660;2022-11-15T04:30:59;12.90;99.90
4910;DHT22;2470;49.868;8.660;2022-11-15T04:33:24;12.90;99.90
4910;DHT22;2470;49.868;8.660;2022-11-15T04:35:50;12.90;99.90
4910;DHT22;2470;49.868;8.660;2022-11-15T04:38:35;12.90;99.90
4910;DHT22;2470;49.868;8.660;2022-11-15T04:41:01;12.90;99.90
4910;DHT22;2470;49.868;8.660;2022-11-15T04:43:27;12.80;99.90
4910;DHT22;2470;49.868;8.660;2022-11-15T04:45:53;12.80;99.90
4910;DHT22;2470;49.868;8.660;2022-11-15T04:48:19;12.90;99.90
4910;DHT22;2470;49.868;8.660;2022-11-15T04:50:44;12.80;99.90
4910;DHT22;2470;49.868;8.660;2022-11-15T04:53:12;12.90;99.90
4910;DHT22;2470;49.868;8.660;2022-11-15T04:55:38;12.80;99.90
4910;DHT22;2470;49.868;8.660;2022-11-15T04:58:03;12.80;99.90
4910;DHT22;2470;49.868;8.660;2022-11-15T05:00:29;12.70;99.90
4910;DHT22;2470;49.868;8.660;2022-11-15T05:02:56;12.70;99.90
4910;DHT22;2470;49.868;8.660;2022-11-15T05:05:41;12.60;99.90
4910;DHT22;2470;49.868;8.660;2022-11-15T05:08:07;12.60;99.90
4910;DHT22;2470;49.868;8.660;2022-11-15T05:10:32;12.60;99.90
4910;DHT22;2470;49.868;8.660;2022-11-15T05:12:58;12.60;99.90
4910;DHT22;2470;49.868;8.660;2022-11-15T05:15:24;12.60;99.90
4910;DHT22;2470;49.868;8.660;2022-11-15T05:17:49;12.60;99.90
4910;DHT22;2470;49.868;8.660;2022-11-15T05:20:15;12.50;99.90
4910;DHT22;2470;49.868;8.660;2022-11-15T05:22:40;12.50;99.90
4910;DHT22;2470;49.868;8.660;2022-11-15T05:25:07;12.50;99.90
4910;DHT22;2470;49.868;8.660;2022-11-15T05:27:33;12.60;99.90
4910;DHT22;2470;49.868;8.660;2022-11-15T05:29:59;12.50;99.90
4910;DHT22;2470;49.868;8.660;2022-11-15T05:32:24;12.50;99.90
4910;DHT22;2470;49.868;8.660;2022-11-15T05:34:51;12.50;99.90
4910;DHT22;2470;49.868;8.660;2022-11-15T05:37:17;12.50;99.90
4910;DHT22;2470;49.868;8.660;2022-11-15T05:39:43;12.50;99.90
4910;DHT22;2470;49.868;8.660;2022-11-15T05:42:13;12.50;99.90
4910;DHT22;2470;49.868;8.660;2022-11-15T05:44:41;12.50;99.90
4910;DHT22;2470;49.868;8.660;2022-11-15T05:47:10;12.50;99.90
4910;DHT22;2470;49.868;8.660;2022-11-15T05:49:38;12.50;99.90
4910;DHT22;2470;49.868;8.660;2022-11-15T05:52:07;12.60;99.90
4910;DHT22;2470;49.868;8.660;2022-11-15T05:54:34;12.50;99.90
4910;DHT22;2470;49.868;8.660;2022-11-15T05:57:00;12.60;99.90
4910;DHT22;2470;49.868;8.660;2022-11-15T05:59:29;12.60;99.90
4910;DHT22;2470;49.868;8.660;2022-11-15T06:01:55;12.60;99.90
4910;DHT22;2470;49.868;8.660;2022-11-15T06:04:21;12.60;99.90
4910;DHT22;2470;49.868;8.660;2022-11-15T06:06:46;12.60;99.90
4910;DHT22;2470;49.868;8.660;2022-11-15T06:09:11;12.60;99.90
4910;DHT22;2470;49.868;8.660;2022-11-15T06:11:37;12.60;99.90
4910;DHT22;2470;49.868;8.660;2022-11-15T06:14:02;12.60;99.90
4910;DHT22;2470;49.868;8.660;2022-11-15T06:16:28;12.60;99.90
4910;DHT22;2470;49.868;8.660;2022-11-15T06:18:53;12.60;99.90
4910;DHT22;2470;49.868;8.660;2022-11-15T06:21:19;12.70;99.90
4910;DHT22;2470;49.868;8.660;2022-11-15T06:23:45;12.70;99.90
4910;DHT22;2470;49.868;8.660;2022-11-15T06:26:10;12.70;99.90
4910;DHT22;2470;49.868;8.660;2022-11-15T06:28:36;12.70;99.90
4910;DHT22;2470;49.868;8.660;2022-11-15T06:31:09;12.70;99.90
4910;DHT22;2470;49.868;8.660;2022-11-15T06:33:36;12.70;99.90
4910;DHT22;2470;49.868;8.660;2022-11-15T06:36:07;12.70;99.90
4910;DHT22;2470;49.868;8.660;2022-11-15T06:38:33;12.70;99.90
4910;DHT22;2470;49.868;8.660;2022-11-15T06:41:03;12.70;99.90
4910;DHT22;2470;49.868;8.660;2022-11-15T06:43:29;12.70;99.90
4910;DHT22;2470;49.868;8.660;2022-11-15T06:45:55;12.70;99.90
4910;DHT22;2470;49.868;8.660;2022-11-15T06:48:20;12.70;99.90
4910;DHT22;2470;49.868;8.660;2022-11-15T06:50:52;12.80;99.90
4910;DHT22;2470;49.868;8.660;2022-11-15T06:53:18;12.70;99.90
4910;DHT22;2470;49.868;8.660;2022-11-15T06:55:43;12.70;99.90
4910;DHT22;2470;49.868;8.660;2022-11-15T06:58:09;12.70;99.90
4910;DHT22;2470;49.868;8.660;2022-11-15T07:00:34;12.70;99.90
4910;DHT22;2470;49.868;8.660;2022-11-15T07:03:00;12.70;99.90
4910;DHT22;2470;49.868;8.660;2022-11-15T07:05:26;12.70;99.90
4910;DHT22;2470;49.868;8.660;2022-11-15T07:07:53;12.60;99.90
4910;DHT22;2470;49.868;8.660;2022-11-15T07:10:19;12.60;99.90
4910;DHT22;2470;49.868;8.660;2022-11-15T07:12:50;12.70;99.90
4910;DHT22;2470;49.868;8.660;2022-11-15T07:15:16;12.70;99.90
4910;DHT22;2470;49.868;8.660;2022-11-15T07:17:42;12.70;99.90
4910;DHT22;2470;49.868;8.660;2022-11-15T07:20:08;12.70;99.90
4910;DHT22;2470;49.868;8.660;2022-11-15T07:22:34;12.70;99.90
4910;DHT22;2470;49.868;8.660;2022-11-15T07:24:59;12.80;99.90
4910;DHT22;2470;49.868;8.660;2022-11-15T07:27:25;12.80;99.90
4910;DHT22;2470;49.868;8.660;2022-11-15T07:29:50;12.90;99.90
4910;DHT22;2470;49.868;8.660;2022-11-15T07:32:16;13.00;99.90
4910;DHT22;2470;49.868;8.660;2022-11-15T07:34:42;13.00;99.90
4910;DHT22;2470;49.868;8.660;2022-11-15T07:37:07;13.00;99.90
4910;DHT22;2470;49.868;8.660;2022-11-15T07:39:33;13.00;99.90
4910;DHT22;2470;49.868;8.660;2022-11-15T07:41:59;13.10;99.90
4910;DHT22;2470;49.868;8.660;2022-11-15T07:44:44;13.10;99.90
4910;DHT22;2470;49.868;8.660;2022-11-15T07:47:09;13.10;99.90
4910;DHT22;2470;49.868;8.660;2022-11-15T07:49:35;13.10;99.90
4910;DHT22;2470;49.868;8.660;2022-11-15T07:52:00;13.10;99.90
4910;DHT22;2470;49.868;8.660;2022-11-15T07:54:26;13.10;99.90
4910;DHT22;2470;49.868;8.660;2022-11-15T07:56:51;13.10;99.90
4910;DHT22;2470;49.868;8.660;2022-11-15T07:59:17;13.20;99.90
4910;DHT22;2470;49.868;8.660;2022-11-15T08:01:42;13.20;99.90
4910;DHT22;2470;49.868;8.660;2022-11-15T08:04:09;13.30;99.90
4910;DHT22;2470;49.868;8.660;2022-11-15T08:06:35;13.30;99.90
4910;DHT22;2470;49.868;8.660;2022-11-15T08:09:00;13.40;99.90
4910;DHT22;2470;49.868;8.660;2022-11-15T08:11:26;13.40;99.90
4910;DHT22;2470;49.868;8.660;2022-11-15T08:13:51;13.50;99.90
4910;DHT22;2470;49.868;8.660;2022-11-15T08:16:17;13.60;99.90
4910;DHT22;2470;49.868;8.660;2022-11-15T08:18:42;13.60;99.90
4910;DHT22;2470;49.868;8.660;2022-11-15T08:21:09;13.60;99.90
4910;DHT22;2470;49.868;8.660;2022-11-15T08:23:34;13.60;99.90
4910;DHT22;2470;49.868;8.660;2022-11-15T08:26:02;13.70;99.90
4910;DHT22;2470;49.868;8.660;2022-11-15T08:28:28;13.70;99.90
4910;DHT22;2470;49.868;8.660;2022-11-15T08:30:53;13.80;99.90
4910;DHT22;2470;49.868;8.660;2022-11-15T08:33:19;13.90;99.90
4910;DHT22;2470;49.868;8.660;2022-11-15T08:35:45;13.90;99.90
4910;DHT22;2470;49.868;8.660;2022-11-15T08:38:10;13.90;99.90
4910;DHT22;2470;49.868;8.660;2022-11-15T08:40:36;13.90;99.90
4910;DHT22;2470;49.868;8.660;2022-11-15T08:43:02;13.80;99.90
4910;DHT22;2470;49.868;8.660;2022-11-15T08:45:29;13.80;99.90
4910;DHT22;2470;49.868;8.660;2022-11-15T08:47:55;13.70;99.90
4910;DHT22;2470;49.868;8.660;2022-11-15T08:50:21;13.70;99.90
4910;DHT22;2470;49.868;8.660;2022-11-15T08:52:46;13.70;99.90
4910;DHT22;2470;49.868;8.660;2022-11-15T08:55:13;13.70;99.90
4910;DHT22;2470;49.868;8.660;2022-11-15T08:57:39;13.60;99.90
4910;DHT22;2470;49.868;8.660;2022-11-15T09:00:05;13.60;99.90
4910;DHT22;2470;49.868;8.660;2022-11-15T09:02:31;13.60;99.90
4910;DHT22;2470;49.868;8.660;2022-11-15T09:04:56;13.60;99.90
4910;DHT22;2470;49.868;8.660;2022-11-15T09:07:22;13.60;99.90
4910;DHT22;2470;49.868;8.660;2022-11-15T09:09:47;13.60;99.90
4910;DHT22;2470;49.868;8.660;2022-11-15T09:12:13;13.60;99.90
4910;DHT22;2470;49.868;8.660;2022-11-15T09:14:39;13.70;99.90
4910;DHT22;2470;49.868;8.660;2022-11-15T09:17:08;13.80;99.90
4910;DHT22;2470;49.868;8.660;2022-11-15T09:19:34;13.90;99.90
4910;DHT22;2470;49.868;8.660;2022-11-15T09:21:59;14.00;99.90
4910;DHT22;2470;49.868;8.660;2022-11-15T09:24:25;14.00;99.90
4910;DHT22;2470;49.868;8.660;2022-11-15T09:26:51;14.00;99.90
4910;DHT22;2470;49.868;8.660;2022-11-15T09:29:17;14.00;99.90
4910;DHT22;2470;49.868;8.660;2022-11-15T09:31:43;14.00;99.90
4910;DHT22;2470;49.868;8.660;2022-11-15T09:34:09;14.00;99.90
4910;DHT22;2470;49.868;8.660;2022-11-15T09:36:34;14.00;99.90
4910;DHT22;2470;49.868;8.660;2022-11-15T09:39:00;14.10;99.90
4910;DHT22;2470;49.868;8.660;2022-11-15T09:41:48;14.10;99.90
4910;DHT22;2470;49.868;8.660;2022-11-15T09:50:11;14.20;99.90
4910;DHT22;2470;49.868;8.660;2022-11-15T09:52:41;14.30;99.90
4910;DHT22;2470;49.868;8.660;2022-11-15T09:55:10;14.40;99.90
4910;DHT22;2470;49.868;8.660;2022-11-15T09:57:46;14.50;99.90
4910;DHT22;2470;49.868;8.660;2022-11-15T10:00:30;14.60;99.90
4910;DHT22;2470;49.868;8.660;2022-11-15T10:03:08;14.70;99.90
4910;DHT22;2470;49.868;8.660;2022-11-15T10:05:41;14.60;99.90
4910;DHT22;2470;49.868;8.660;2022-11-15T10:11:10;14.60;99.90
4910;DHT22;2470;49.868;8.660;2022-11-15T10:13:41;14.60;99.90
4910;DHT22;2470;49.868;8.660;2022-11-15T10:24:19;14.70;99.90
4910;DHT22;2470;49.868;8.660;2022-11-15T10:26:47;14.80;99.90
4910;DHT22;2470;49.868;8.660;2022-11-15T10:29:21;14.80;99.90
4910;DHT22;2470;49.868;8.660;2022-11-15T10:31:47;14.80;99.90
4910;DHT22;2470;49.868;8.660;2022-11-15T10:34:15;14.80;99.90
4910;DHT22;2470;49.868;8.660;2022-11-15T10:36:55;14.80;99.90
4910;DHT22;2470;49.868;8.660;2022-11-15T10:39:21;14.80;99.90
4910;DHT22;2470;49.868;8.660;2022-11-15T10:41:47;14.90;99.90
4910;DHT22;2470;49.868;8.660;2022-11-15T10:49:30;14.90;99.90
4910;DHT22;2470;49.868;8.660;2022-11-15T10:52:16;14.70;99.90
4910;DHT22;2470;49.868;8.660;2022-11-15T10:55:12;14.60;99.90
4910;DHT22;2470;49.868;8.660;2022-11-15T10:58:05;14.60;99.90
4910;DHT22;2470;49.868;8.660;2022-11-15T11:00:38;14.60;99.90
4910;DHT22;2470;49.868;8.660;2022-11-15T11:03:44;14.70;99.90
4910;DHT22;2470;49.868;8.660;2022-11-15T11:06:17;14.80;99.90
4910;DHT22;2470;49.868;8.660;2022-11-15T11:09:01;14.80;99.90
4910;DHT22;2470;49.868;8.660;2022-11-15T11:11:49;14.90;99.90
4910;DHT22;2470;49.868;8.660;2022-11-15T11:14:35;15.00;99.90
4910;DHT22;2470;49.868;8.660;2022-11-15T11:29:02;15.70;99.90
4910;DHT22;2470;49.868;8.660;2022-11-15T11:34:17;16.10;99.90
4910;DHT22;2470;49.868;8.660;2022-11-15T11:48:25;16.10;99.90
4910;DHT22;2470;49.868;8.660;2022-11-15T11:51:04;16.00;99.90
4910;DHT22;2470;49.868;8.660;2022-11-15T11:54:00;16.20;99.90
4910;DHT22;2470;49.868;8.660;2022-11-15T11:56:32;16.20;99.90
4910;DHT22;2470;49.868;8.660;2022-11-15T12:02:02;16.30;99.90
4910;DHT22;2470;49.868;8.660;2022-11-15T12:04:39;16.40;99.90
4910;DHT22;2470;49.868;8.660;2022-11-15T12:07:19;16.40;99.90
4910;DHT22;2470;49.868;8.660;2022-11-15T12:15:35;16.50;99.90
4910;DHT22;2470;49.868;8.660;2022-11-15T12:18:02;16.50;99.90
4910;DHT22;2470;49.868;8.660;2022-11-15T12:20:33;16.50;99.90
4910;DHT22;2470;49.868;8.660;2022-11-15T12:23:13;16.40;99.90
4910;DHT22;2470;49.868;8.660;2022-11-15T12:25:52;16.20;99.90
4910;DHT22;2470;49.868;8.660;2022-11-15T12:31:23;16.20;99.90
4910;DHT22;2470;49.868;8.660;2022-11-15T12:33:49;16.20;99.90
4910;DHT22;2470;49.868;8.660;2022-11-15T12:39:01;16.10;99.90
4910;DHT22;2470;49.868;8.660;2022-11-15T12:41:36;16.00;99.90
4910;DHT22;2470;49.868;8.660;2022-11-15T12:44:03;15.80;99.90
4910;DHT22;2470;49.868;8.660;2022-11-15T13:02:38;15.30;99.90
4910;DHT22;2470;49.868;8.660;2022-11-15T13:22:53;15.40;99.90
4910;DHT22;2470;49.868;8.660;2022-11-15T13:33:43;15.60;99.90
4910;DHT22;2470;49.868;8.660;2022-11-15T13:38:40;15.60;99.90
4910;DHT22;2470;49.868;8.660;2022-11-15T13:41:20;15.70;99.90
4910;DHT22;2470;49.868;8.660;2022-11-15T13:43:48;15.70;99.90
4910;DHT22;2470;49.868;8.660;2022-11-15T13:46:24;15.70;99.90
4910;DHT22;2470;49.868;8.660;2022-11-15T13:48:57;15.70;99.90
4910;DHT22;2470;49.868;8.660;2022-11-15T13:51:36;15.60;99.90
4910;DHT22;2470;49.868;8.660;2022-11-15T13:54:21;15.70;99.90
4910;DHT22;2470;49.868;8.660;2022-11-15T13:57:03;15.70;99.90
4910;DHT22;2470;49.868;8.660;2022-11-15T13:59:33;15.70;99.90
4910;DHT22;2470;49.868;8.660;2022-11-15T14:02:11;15.70;99.90
4910;DHT22;2470;49.868;8.660;2022-11-15T14:04:45;15.70;99.90
4910;DHT22;2470;49.868;8.660;2022-11-15T14:07:20;15.70;99.90
4910;DHT22;2470;49.868;8.660;2022-11-15T14:09:47;15.70;99.90
4910;DHT22;2470;49.868;8.660;2022-11-15T14:14:56;15.80;99.90
4910;DHT22;2470;49.868;8.660;2022-11-15T14:19:53;15.90;99.90
4910;DHT22;2470;49.868;8.660;2022-11-15T14:22:27;16.00;99.90
4910;DHT22;2470;49.868;8.660;2022-11-15T14:27:38;16.00;99.90
4910;DHT22;2470;49.868;8.660;2022-11-15T14:30:04;15.90;99.90
4910;DHT22;2470;49.868;8.660;2022-11-15T14:32:44;15.80;99.90
4910;DHT22;2470;49.868;8.660;2022-11-15T14:35:16;15.70;99.90
4910;DHT22;2470;49.868;8.660;2022-11-15T14:37:42;15.60;99.90
4910;DHT22;2470;49.868;8.660;2022-11-15T14:40:12;15.60;99.90
4910;DHT22;2470;49.868;8.660;2022-11-15T14:42:39;15.50;99.90
4910;DHT22;2470;49.868;8.660;2022-11-15T14:47:39;15.50;99.90
4910;DHT22;2470;49.868;8.660;2022-11-15T14:50:05;15.50;99.90
4910;DHT22;2470;49.868;8.660;2022-11-15T14:52:32;15.50;99.90
4910;DHT22;2470;49.868;8.660;2022-11-15T14:55:03;15.50;99.90
4910;DHT22;2470;49.868;8.660;2022-11-15T14:57:30;15.40;99.90
4910;DHT22;2470;49.868;8.660;2022-11-15T14:59:55;15.40;99.90
4910;DHT22;2470;49.868;8.660;2022-11-15T15:02:25;15.40;99.90
4910;DHT22;2470;49.868;8.660;2022-11-15T15:04:52;15.40;99.90
4910;DHT22;2470;49.868;8.660;2022-11-15T15:07:19;15.30;99.90
4910;DHT22;2470;49.868;8.660;2022-11-15T15:09:45;15.30;99.90
4910;DHT22;2470;49.868;8.660;2022-11-15T15:12:19;15.30;99.90
4910;DHT22;2470;49.868;8.660;2022-11-15T15:14:46;15.20;99.90
4910;DHT22;2470;49.868;8.660;2022-11-15T15:17:12;15.20;99.90
4910;DHT22;2470;49.868;8.660;2022-11-15T15:19:38;15.10;99.90
4910;DHT22;2470;49.868;8.660;2022-11-15T15:22:03;15.00;99.90
4910;DHT22;2470;49.868;8.660;2022-11-15T15:24:29;15.00;99.90
4910;DHT22;2470;49.868;8.660;2022-11-15T15:26:55;15.00;99.90
4910;DHT22;2470;49.868;8.660;2022-11-15T15:29:20;15.00;99.90
4910;DHT22;2470;49.868;8.660;2022-11-15T15:31:46;15.00;99.90
4910;DHT22;2470;49.868;8.660;2022-11-15T15:34:11;15.00;99.90
4910;DHT22;2470;49.868;8.660;2022-11-15T15:36:37;15.00;99.90
4910;DHT22;2470;49.868;8.660;2022-11-15T15:39:02;14.90;99.90
4910;DHT22;2470;49.868;8.660;2022-11-15T15:41:28;14.90;99.90
4910;DHT22;2470;49.868;8.660;2022-11-15T15:43:54;14.80;99.90
4910;DHT22;2470;49.868;8.660;2022-11-15T15:46:20;14.80;99.90
4910;DHT22;2470;49.868;8.660;2022-11-15T15:48:46;14.80;99.90
4910;DHT22;2470;49.868;8.660;2022-11-15T15:51:12;14.70;99.90
4910;DHT22;2470;49.868;8.660;2022-11-15T15:53:38;14.70;99.90
4910;DHT22;2470;49.868;8.660;2022-11-15T15:56:04;14.70;99.90
4910;DHT22;2470;49.868;8.660;2022-11-15T15:58:30;14.70;99.90
4910;DHT22;2470;49.868;8.660;2022-11-15T16:00:57;14.70;99.90
4910;DHT22;2470;49.868;8.660;2022-11-15T16:03:22;14.60;99.90
4910;DHT22;2470;49.868;8.660;2022-11-15T16:05:50;14.60;99.90
4910;DHT22;2470;49.868;8.660;2022-11-15T16:08:20;14.60;99.90
4910;DHT22;2470;49.868;8.660;2022-11-15T16:10:46;14.60;99.90
4910;DHT22;2470;49.868;8.660;2022-11-15T16:13:12;14.60;99.90
4910;DHT22;2470;49.868;8.660;2022-11-15T16:15:37;14.60;99.90
4910;DHT22;2470;49.868;8.660;2022-11-15T16:18:04;14.60;99.90
4910;DHT22;2470;49.868;8.660;2022-11-15T16:20:39;14.50;99.90
4910;DHT22;2470;49.868;8.660;2022-11-15T16:23:09;14.50;99.90
4910;DHT22;2470;49.868;8.660;2022-11-15T16:25:45;14.50;99.90
4910;DHT22;2470;49.868;8.660;2022-11-15T16:28:20;14.50;99.90
4910;DHT22;2470;49.868;8.660;2022-11-15T16:30:46;14.50;99.90
4910;DHT22;2470;49.868;8.660;2022-11-15T16:33:11;14.50;99.90
4910;DHT22;2470;49.868;8.660;2022-11-15T16:35:37;14.40;99.90
4910;DHT22;2470;49.868;8.660;2022-11-15T16:38:02;14.40;99.90
4910;DHT22;2470;49.868;8.660;2022-11-15T16:40:30;14.40;99.90
4910;DHT22;2470;49.868;8.660;2022-11-15T16:42:57;14.40;99.90
4910;DHT22;2470;49.868;8.660;2022-11-15T16:45:24;14.40;99.90
4910;DHT22;2470;49.868;8.660;2022-11-15T16:47:50;14.40;99.90
4910;DHT22;2470;49.868;8.660;2022-11-15T16:50:28;14.40;99.90
4910;DHT22;2470;49.868;8.660;2022-11-15T16:52:55;14.40;99.90
4910;DHT22;2470;49.868;8.660;2022-11-15T16:55:23;14.40;99.90
4910;DHT22;2470;49.868;8.660;2022-11-15T16:57:49;14.40;99.90
4910;DHT22;2470;49.868;8.660;2022-11-15T17:00:16;14.40;99.90
4910;DHT22;2470;49.868;8.660;2022-11-15T17:02:43;14.40;99.90
4910;DHT22;2470;49.868;8.660;2022-11-15T17:05:09;14.40;99.90
4910;DHT22;2470;49.868;8.660;2022-11-15T17:07:35;14.30;99.90
4910;DHT22;2470;49.868;8.660;2022-11-15T17:10:00;14.40;99.90
4910;DHT22;2470;49.868;8.660;2022-11-15T17:12:26;14.30;99.90
4910;DHT22;2470;49.868;8.660;2022-11-15T17:14:52;14.30;99.90
4910;DHT22;2470;49.868;8.660;2022-11-15T17:17:17;14.30;99.90
4910;DHT22;2470;49.868;8.660;2022-11-15T17:19:43;14.30;99.90
4910;DHT22;2470;49.868;8.660;2022-11-15T17:22:08;14.30;99.90
4910;DHT22;2470;49.868;8.660;2022-11-15T17:24:34;14.30;99.90
4910;DHT22;2470;49.868;8.660;2022-11-15T17:26:59;14.30;99.90
4910;DHT22;2470;49.868;8.660;2022-11-15T17:29:25;14.30;99.90
4910;DHT22;2470;49.868;8.660;2022-11-15T17:31:50;14.30;99.90
4910;DHT22;2470;49.868;8.660;2022-11-15T17:34:16;14.30;99.90
4910;DHT22;2470;49.868;8.660;2022-11-15T17:36:41;14.30;99.90
4910;DHT22;2470;49.868;8.660;2022-11-15T17:39:07;14.30;99.90
4910;DHT22;2470;49.868;8.660;2022-11-15T17:41:32;14.40;99.90
4910;DHT22;2470;49.868;8.660;2022-11-15T17:43:58;14.30;99.90
4910;DHT22;2470;49.868;8.660;2022-11-15T17:46:24;14.30;99.90
4910;DHT22;2470;49.868;8.660;2022-11-15T17:48:50;14.30;99.90
4910;DHT22;2470;49.868;8.660;2022-11-15T17:51:17;14.30;99.90
4910;DHT22;2470;49.868;8.660;2022-11-15T17:53:45;14.30;99.90
4910;DHT22;2470;49.868;8.660;2022-11-15T17:56:16;14.30;99.90
4910;DHT22;2470;49.868;8.660;2022-11-15T17:58:47;14.30;99.90
4910;DHT22;2470;49.868;8.660;2022-11-15T18:03:50;14.30;99.90
4910;DHT22;2470;49.868;8.660;2022-11-15T18:06:18;14.40;99.90
4910;DHT22;2470;49.868;8.660;2022-11-15T18:08:46;14.40;99.90
4910;DHT22;2470;49.868;8.660;2022-11-15T18:11:14;14.40;99.90
4910;DHT22;2470;49.868;8.660;2022-11-15T18:13:42;14.30;99.90
4910;DHT22;2470;49.868;8.660;2022-11-15T18:16:12;14.30;99.90
4910;DHT22;2470;49.868;8.660;2022-11-15T18:18:38;14.40;99.90
4910;DHT22;2470;49.868;8.660;2022-11-15T18:21:06;14.40;99.90
4910;DHT22;2470;49.868;8.660;2022-11-15T18:23:32;14.40;99.90
4910;DHT22;2470;49.868;8.660;2022-11-15T18:25:59;14.30;99.90
4910;DHT22;2470;49.868;8.660;2022-11-15T18:28:30;14.30;99.90
4910;DHT22;2470;49.868;8.660;2022-11-15T18:30:56;14.40;99.90
4910;DHT22;2470;49.868;8.660;2022-11-15T18:33:22;14.40;99.90
4910;DHT22;2470;49.868;8.660;2022-11-15T18:35:47;14.40;99.90
4910;DHT22;2470;49.868;8.660;2022-11-15T18:38:13;14.40;99.90